createdAt,value
2023-03-05T00:04:42.694Z,57.17
2023-03-05T00:09:45.583Z,57.84
2023-03-05T00:14:48.491Z,58.29
2023-03-05T00:19:51.317Z,57.92
2023-03-05T00:24:54.189Z,57.84
2023-03-05T00:29:57.201Z,58.52
2023-03-05T00:34:59.994Z,58.56
2023-03-05T00:40:04.421Z,58.26
2023-03-05T00:45:09.627Z,57.95
2023-03-05T00:50:12.494Z,58.62
2023-03-05T00:55:15.406Z,58.13
2023-03-05T01:00:18.776Z,58.80
2023-03-05T01:05:21.740Z,59.10
2023-03-05T01:10:28.063Z,60.99
2023-03-05T01:15:30.885Z,61.16
2023-03-05T01:20:34.091Z,62.25
2023-03-05T01:25:37.097Z,71.60
2023-03-05T01:30:39.900Z,51.26
2023-03-05T01:35:43.055Z,47.93
2023-03-05T01:40:46.237Z,51.94
2023-03-05T01:46:07.727Z,52.81
2023-03-05T01:51:10.864Z,56.43
2023-03-05T01:56:13.976Z,59.38
2023-03-05T02:01:17.355Z,61.09
2023-03-05T02:06:20.190Z,63.14
2023-03-05T02:11:23.292Z,52.44
2023-03-05T02:16:26.037Z,53.25
2023-03-05T02:21:37.298Z,56.97
2023-03-05T02:26:40.512Z,59.35
2023-03-05T02:31:43.637Z,60.49
2023-03-05T02:36:46.935Z,66.25
2023-03-05T02:41:49.738Z,61.95
2023-03-05T02:46:53.581Z,46.96
2023-03-05T02:51:56.459Z,52.19
2023-03-05T02:56:59.369Z,57.36
2023-03-05T03:02:02.266Z,58.76
2023-03-05T03:07:05.272Z,61.23
2023-03-05T03:12:08.495Z,66.93
2023-03-05T03:17:14.361Z,54.37
2023-03-05T03:22:17.262Z,49.50
2023-03-05T03:27:20.177Z,55.23
2023-03-05T03:32:23.117Z,59.46
2023-03-05T03:37:25.976Z,61.26
2023-03-05T03:42:28.876Z,60.49
2023-03-05T03:47:31.782Z,65.13
2023-03-05T03:52:34.894Z,52.39
2023-03-05T03:57:37.700Z,51.21
2023-03-05T04:02:40.692Z,53.92
2023-03-05T04:07:45.549Z,57.71
2023-03-05T04:12:48.558Z,61.20
2023-03-05T04:17:51.354Z,61.92
2023-03-05T04:22:54.263Z,55.36
2023-03-05T04:27:57.160Z,58.21
2023-03-05T04:33:00.079Z,62.75
2023-03-05T04:38:03.069Z,60.00
2023-03-05T04:43:06.687Z,53.31
2023-03-05T04:48:11.362Z,58.03
2023-03-05T04:53:14.229Z,58.73
2023-03-05T04:58:17.060Z,60.56
2023-03-05T05:03:19.938Z,63.87
2023-03-05T05:08:23.357Z,65.30
2023-03-05T05:13:26.764Z,50.41
2023-03-05T05:18:29.676Z,50.83
2023-03-05T05:23:32.573Z,54.36
2023-03-05T05:28:35.909Z,56.35
2023-03-05T05:33:39.095Z,59.63
2023-03-05T05:38:42.209Z,66.77
2023-03-05T05:43:45.810Z,67.36
2023-03-05T05:48:48.948Z,51.63
2023-03-05T05:53:52.358Z,56.43
2023-03-05T05:58:55.380Z,61.28
2023-03-05T06:03:58.470Z,64.34
2023-03-05T06:09:01.374Z,49.00
2023-03-05T06:14:05.069Z,50.65
2023-03-05T06:19:12.037Z,58.53
2023-03-05T06:24:15.003Z,66.16
2023-03-05T06:29:18.345Z,56.06
2023-03-05T06:34:21.624Z,58.03
2023-03-05T06:39:24.429Z,63.50
2023-03-05T06:44:27.427Z,56.11
2023-03-05T06:49:30.231Z,55.58
2023-03-05T06:54:33.137Z,57.66
2023-03-05T06:59:35.937Z,59.43
2023-03-05T07:04:38.837Z,66.09
2023-03-05T07:09:44.309Z,63.57
2023-03-05T07:14:47.204Z,47.47
2023-03-05T07:19:50.135Z,53.41
2023-03-05T07:24:53.019Z,60.03
2023-03-05T07:29:55.915Z,60.66
2023-03-05T07:34:58.818Z,55.39
2023-03-05T07:40:01.730Z,60.28
2023-03-05T07:45:05.259Z,62.43
2023-03-05T07:50:09.126Z,55.51
2023-03-05T07:55:12.176Z,57.54
2023-03-05T08:00:15.723Z,59.86
2023-03-05T08:05:18.804Z,61.33
2023-03-05T08:10:21.709Z,61.44
2023-03-05T08:15:25.122Z,61.40
2023-03-05T08:20:27.988Z,60.28
2023-03-05T08:25:31.713Z,60.19
2023-03-05T08:30:34.546Z,59.70
2023-03-05T08:35:37.846Z,59.34
2023-03-05T08:40:40.866Z,59.10
2023-03-05T08:45:43.770Z,58.27
2023-03-05T08:50:46.671Z,58.06
2023-03-05T08:55:58.915Z,57.59
2023-03-05T09:01:01.800Z,56.82
2023-03-05T09:06:08.125Z,56.33
2023-03-05T09:11:13.350Z,55.65
2023-03-05T09:16:17.977Z,55.71
2023-03-05T09:21:21.427Z,52.89
2023-03-05T09:26:24.305Z,52.11
2023-03-05T09:31:27.337Z,53.00
2023-03-05T09:36:32.079Z,53.21
2023-03-05T09:41:53.911Z,52.47
2023-03-05T09:47:15.748Z,50.68
2023-03-05T09:52:23.677Z,50.09
2023-03-05T09:57:38.814Z,50.89
2023-03-05T10:02:51.085Z,50.65
2023-03-05T10:08:01.509Z,49.74
2023-03-05T10:13:28.737Z,48.23
2023-03-05T10:18:42.451Z,49.04
2023-03-05T10:23:50.712Z,47.96
2023-03-05T10:29:21.195Z,45.77
2023-03-05T10:34:31.335Z,45.00
2023-03-05T10:39:43.421Z,45.37
2023-03-05T10:45:00.219Z,44.39
2023-03-05T10:50:12.828Z,45.19
2023-03-05T10:55:19.525Z,45.09
2023-03-05T11:00:25.770Z,46.09
2023-03-05T11:05:47.256Z,47.57
2023-03-05T11:11:08.473Z,47.30
2023-03-05T11:16:25.093Z,46.05
2023-03-05T11:21:28.818Z,44.53
2023-03-05T11:26:32.127Z,44.09
2023-03-05T11:31:34.830Z,44.12
2023-03-05T11:36:42.769Z,43.44
2023-03-05T11:41:48.530Z,43.91
2023-03-05T11:46:56.400Z,47.91
2023-03-05T11:52:17.333Z,52.32
2023-03-05T11:57:23.448Z,52.81
2023-03-05T12:02:28.044Z,52.63
2023-03-05T12:07:40.653Z,53.41
2023-03-05T12:13:03.109Z,58.53
2023-03-05T12:18:08.873Z,60.82
2023-03-05T12:23:14.698Z,61.24
2023-03-05T12:28:46.113Z,59.45
2023-03-05T12:33:49.013Z,56.42
2023-03-05T12:38:54.507Z,54.71
2023-03-05T12:44:06.394Z,51.83
2023-03-05T12:49:18.201Z,51.77
2023-03-05T12:54:29.009Z,51.60
2023-03-05T12:59:46.086Z,51.79
2023-03-05T13:04:52.734Z,49.15
2023-03-05T13:09:58.285Z,47.47
2023-03-05T13:15:06.566Z,46.90
2023-03-05T13:20:40.723Z,45.35
2023-03-05T13:25:56.644Z,43.62
2023-03-05T13:31:04.120Z,42.79
2023-03-05T13:36:07.576Z,41.76
2023-03-05T13:41:38.708Z,41.01
2023-03-05T13:46:44.994Z,40.97
2023-03-05T13:51:54.703Z,41.22
2023-03-05T13:57:08.524Z,42.31
2023-03-05T14:02:18.406Z,42.80
2023-03-05T14:07:47.607Z,43.33
2023-03-05T14:12:51.123Z,43.40
2023-03-05T14:18:09.450Z,43.28
2023-03-05T14:23:30.935Z,42.53
2023-03-05T14:28:34.680Z,41.91
2023-03-05T14:33:37.685Z,42.31
2023-03-05T14:38:43.021Z,42.65
2023-03-05T14:43:46.052Z,43.76
2023-03-05T14:48:48.960Z,44.50
2023-03-05T14:53:51.983Z,44.89
2023-03-05T14:58:55.485Z,45.01
2023-03-05T15:03:58.491Z,44.94
2023-03-05T15:09:01.907Z,44.15
2023-03-05T15:14:04.805Z,43.16
2023-03-05T15:19:09.550Z,41.02
2023-03-05T15:24:14.902Z,39.83
2023-03-05T15:29:17.712Z,39.48
2023-03-05T15:34:20.615Z,39.61
2023-03-05T15:39:27.311Z,40.02
2023-03-05T15:44:30.215Z,39.80
2023-03-05T15:49:33.237Z,39.68
2023-03-05T15:54:36.978Z,40.51
2023-03-05T15:59:40.520Z,41.33
2023-03-05T16:04:43.367Z,47.60
2023-03-05T16:09:50.378Z,49.75
2023-03-05T16:14:53.271Z,52.95
2023-03-05T16:19:56.379Z,54.09
2023-03-05T16:25:01.366Z,55.60
2023-03-05T16:30:05.521Z,58.90
2023-03-05T16:35:11.973Z,61.69
2023-03-05T16:40:15.539Z,57.16
2023-03-05T16:45:18.429Z,56.73
2023-03-05T16:50:21.474Z,58.25
2023-03-05T16:55:24.286Z,58.97
2023-03-05T17:00:27.188Z,60.62
2023-03-05T17:05:30.189Z,64.97
2023-03-05T17:10:33.710Z,58.81
2023-03-05T17:15:36.919Z,50.13
2023-03-05T17:20:40.924Z,54.26
2023-03-05T17:25:43.851Z,58.17
2023-03-05T17:30:46.800Z,62.19
2023-03-05T17:35:50.090Z,61.05
2023-03-05T17:40:53.485Z,56.37
2023-03-05T17:45:59.916Z,63.48
2023-03-05T17:51:03.002Z,58.13
2023-03-05T17:56:13.881Z,54.35
2023-03-05T18:01:29.732Z,61.63
2023-03-05T18:06:32.681Z,61.11
2023-03-05T18:11:36.101Z,56.83
2023-03-05T18:16:39.207Z,65.37
2023-03-05T18:21:42.317Z,55.56
2023-03-05T18:26:45.117Z,57.17
2023-03-05T18:31:48.117Z,62.81
2023-03-05T18:36:51.698Z,56.63
2023-03-05T18:41:55.465Z,59.95
2023-03-05T18:46:58.359Z,64.19
2023-03-05T18:52:01.571Z,53.67
2023-03-05T18:57:04.372Z,56.86
2023-03-05T19:02:14.449Z,66.01
2023-03-05T19:07:17.369Z,56.67
2023-03-05T19:12:22.650Z,55.64
2023-03-05T19:17:26.116Z,62.26
2023-03-05T19:22:29.750Z,62.98
2023-03-05T19:27:33.064Z,52.54
2023-03-05T19:32:36.214Z,58.17
2023-03-05T19:37:39.072Z,65.36
2023-03-05T19:42:42.088Z,56.82
2023-03-05T19:47:45.087Z,57.99
2023-03-05T19:52:47.984Z,64.07
2023-03-05T19:57:50.886Z,55.58
2023-03-05T20:02:53.790Z,60.07
2023-03-05T20:07:57.129Z,66.64
2023-03-05T20:13:00.008Z,59.68
2023-03-05T20:18:02.910Z,53.48
2023-03-05T20:23:05.816Z,59.50
2023-03-05T20:28:08.722Z,64.43
2023-03-05T20:33:11.723Z,65.35
2023-03-05T20:38:22.478Z,53.32
2023-03-05T20:43:28.796Z,59.48
2023-03-05T20:48:34.443Z,61.99
2023-03-05T20:53:37.232Z,56.66
2023-03-05T20:58:40.172Z,61.53
2023-03-05T21:03:42.990Z,66.70
2023-03-05T21:08:45.981Z,55.53
2023-03-05T21:13:49.190Z,59.26
2023-03-05T21:18:53.060Z,65.20
2023-03-05T21:23:56.033Z,64.18
2023-03-05T21:28:59.027Z,53.13
2023-03-05T21:34:01.931Z,55.70
2023-03-05T21:39:04.836Z,59.46
2023-03-05T21:44:08.733Z,69.42
2023-03-05T21:49:12.689Z,58.34
2023-03-05T21:54:15.485Z,53.05
2023-03-05T21:59:18.391Z,57.46
2023-03-05T22:04:21.290Z,59.30
2023-03-05T22:09:24.109Z,67.30
2023-03-05T22:14:26.962Z,60.31
2023-03-05T22:19:30.002Z,52.54
2023-03-05T22:24:32.798Z,58.25
2023-03-05T22:29:35.642Z,67.57
2023-03-05T22:34:38.504Z,55.22
2023-03-05T22:39:41.405Z,53.22
2023-03-05T22:44:44.216Z,58.99
2023-03-05T22:49:47.110Z,58.82
2023-03-05T22:54:50.016Z,68.57
2023-03-05T22:59:53.529Z,57.97
2023-03-05T23:05:00.642Z,51.90
2023-03-05T23:10:08.786Z,56.08
2023-03-05T23:15:15.166Z,61.06
2023-03-05T23:20:21.213Z,67.30
2023-03-05T23:25:27.523Z,60.63
2023-03-05T23:30:37.309Z,52.85
2023-03-05T23:35:43.185Z,57.69
2023-03-05T23:40:48.921Z,61.24
2023-03-05T23:45:55.250Z,70.03
2023-03-05T23:50:58.207Z,62.15
2023-03-05T23:56:01.511Z,52.10
